createdAt,value
2018-12-07T00:01:58.397Z,24.40
2018-12-07T00:04:27.390Z,23.07
2018-12-07T00:06:56.535Z,25.43
2018-12-07T00:09:25.389Z,26.37
2018-12-07T00:11:54.995Z,24.10
2018-12-07T00:14:23.819Z,25.17
2018-12-07T00:16:53.067Z,23.90
2018-12-07T00:19:23.000Z,25.17
2018-12-07T00:21:51.828Z,24.33
2018-12-07T00:24:20.703Z,26.23
2018-12-07T00:26:49.532Z,24.60
2018-12-07T00:29:18.407Z,25.20
2018-12-07T00:31:47.247Z,24.57
2018-12-07T00:34:16.111Z,25.03
2018-12-07T00:36:44.919Z,22.67
2018-12-07T00:39:13.744Z,22.50
2018-12-07T00:41:42.651Z,24.30
2018-12-07T00:44:11.676Z,24.90
2018-12-07T00:46:40.447Z,25.50
2018-12-07T00:49:09.371Z,26.97
2018-12-07T00:51:38.573Z,24.97
2018-12-07T00:54:07.467Z,25.37
2018-12-07T00:56:36.671Z,28.87
2018-12-07T00:59:05.471Z,27.10
2018-12-07T01:01:34.435Z,26.43
2018-12-07T01:04:03.275Z,28.90
2018-12-07T01:06:32.436Z,26.50
2018-12-07T01:09:01.615Z,28.07
2018-12-07T01:11:30.470Z,26.97
2018-12-07T01:13:59.722Z,27.43
2018-12-07T01:16:28.566Z,27.20
2018-12-07T01:18:57.695Z,28.67
2018-12-07T01:21:26.720Z,27.00
2018-12-07T01:23:55.591Z,27.97
2018-12-07T01:26:24.444Z,25.13
2018-12-07T01:28:53.243Z,27.73
2018-12-07T01:31:22.287Z,27.57
2018-12-07T01:33:51.361Z,26.87
2018-12-07T01:36:20.239Z,25.33
2018-12-07T01:38:49.175Z,25.50
2018-12-07T01:41:18.341Z,26.17
2018-12-07T01:43:47.420Z,27.50
2018-12-07T01:46:16.628Z,27.87
2018-12-07T01:48:45.689Z,25.97
2018-12-07T01:51:14.636Z,26.70
2018-12-07T01:53:43.903Z,25.03
2018-12-07T01:56:12.907Z,23.77
2018-12-07T01:58:42.004Z,26.37
2018-12-07T02:01:11.099Z,25.60
2018-12-07T02:03:39.950Z,24.40
2018-12-07T02:06:15.612Z,25.43
2018-12-07T02:08:44.739Z,25.00
2018-12-07T02:11:13.628Z,24.73
2018-12-07T02:13:42.835Z,27.20
2018-12-07T02:16:12.032Z,26.97
2018-12-07T02:18:41.128Z,26.57
2018-12-07T02:21:09.917Z,27.03
2018-12-07T02:23:39.123Z,25.23
2018-12-07T02:26:08.004Z,26.97
2018-12-07T02:28:37.099Z,27.20
2018-12-07T02:31:06.346Z,22.57
2018-12-07T02:33:35.491Z,24.83
2018-12-07T02:36:04.901Z,27.37
2018-12-07T02:38:34.110Z,26.93
2018-12-07T02:41:03.296Z,23.57
2018-12-07T02:43:32.490Z,25.73
2018-12-07T02:46:01.631Z,23.73
2018-12-07T02:48:30.893Z,23.67
2018-12-07T02:50:59.924Z,24.57
2018-12-07T02:53:29.091Z,26.50
2018-12-07T02:55:57.976Z,25.90
2018-12-07T02:58:27.110Z,33.33
2018-12-07T03:00:56.081Z,26.10
2018-12-07T03:03:24.964Z,25.03
2018-12-07T03:05:54.081Z,26.10
2018-12-07T03:08:22.968Z,24.70
2018-12-07T03:10:52.148Z,23.80
2018-12-07T03:13:20.947Z,26.43
2018-12-07T03:15:50.373Z,24.43
2018-12-07T03:18:30.280Z,23.40
2018-12-07T03:20:59.895Z,25.03
2018-12-07T03:23:29.089Z,25.53
2018-12-07T03:25:58.178Z,23.37
2018-12-07T03:28:27.376Z,24.67
2018-12-07T03:30:56.631Z,23.03
2018-12-07T03:33:25.875Z,23.93
2018-12-07T03:35:55.079Z,22.83
2018-12-07T03:38:23.913Z,25.80
2018-12-07T03:40:53.037Z,26.30
2018-12-07T03:43:21.984Z,25.63
2018-12-07T03:45:51.063Z,24.33
2018-12-07T03:48:20.244Z,21.77
2018-12-07T03:50:49.351Z,24.47
2018-12-07T03:53:18.332Z,24.90
2018-12-07T03:55:47.225Z,25.13
2018-12-07T03:58:16.435Z,24.27
2018-12-07T04:00:45.527Z,25.67
2018-12-07T04:03:14.726Z,25.87
2018-12-07T04:05:43.811Z,27.40
2018-12-07T04:08:13.315Z,27.70
2018-12-07T04:10:42.527Z,26.53
2018-12-07T04:13:11.791Z,29.97
2018-12-07T04:15:41.101Z,27.53
2018-12-07T04:18:10.214Z,26.20
2018-12-07T04:20:39.103Z,26.67
2018-12-07T04:23:08.391Z,26.37
2018-12-07T04:25:37.507Z,27.90
2018-12-07T04:28:06.506Z,26.87
2018-12-07T04:30:35.600Z,27.00
2018-12-07T04:33:04.816Z,29.77
2018-12-07T04:35:33.996Z,26.93
2018-12-07T04:38:03.351Z,26.47
2018-12-07T04:40:32.496Z,25.13
2018-12-07T04:43:01.605Z,25.20
2018-12-07T04:45:30.804Z,29.60
2018-12-07T04:47:59.992Z,27.80
2018-12-07T04:50:29.341Z,27.37
2018-12-07T04:52:58.241Z,28.67
2018-12-07T04:55:27.373Z,26.17
2018-12-07T04:57:58.649Z,27.23
2018-12-07T05:00:27.824Z,26.77
2018-12-07T05:02:56.930Z,27.20
2018-12-07T05:05:26.525Z,27.70
2018-12-07T05:07:55.559Z,28.23
2018-12-07T05:10:24.392Z,28.50
2018-12-07T05:12:53.264Z,29.03
2018-12-07T05:15:22.704Z,28.53
2018-12-07T05:17:52.469Z,29.70
2018-12-07T05:20:21.329Z,30.47
2018-12-07T05:22:50.644Z,28.30
2018-12-07T05:25:19.664Z,31.73
2018-12-07T05:27:49.032Z,29.70
2018-12-07T05:30:17.994Z,32.00
2018-12-07T05:32:47.103Z,32.50
2018-12-07T05:35:16.288Z,32.10
2018-12-07T05:37:45.063Z,28.17
2018-12-07T05:40:14.198Z,28.10
2018-12-07T05:42:43.386Z,32.20
2018-12-07T05:45:11.947Z,31.23
2018-12-07T05:47:40.833Z,27.53
2018-12-07T05:50:10.056Z,29.87
2018-12-07T05:52:39.253Z,26.80
2018-12-07T05:55:08.964Z,26.87
2018-12-07T05:57:38.053Z,26.03
2018-12-07T06:00:08.785Z,28.60
2018-12-07T06:02:37.988Z,30.03
2018-12-07T06:05:14.491Z,32.00
2018-12-07T06:07:43.640Z,33.80
2018-12-07T06:10:12.846Z,30.13
2018-12-07T06:12:42.175Z,30.37
2018-12-07T06:15:11.584Z,28.87
2018-12-07T06:17:40.564Z,27.63
2018-12-07T06:20:09.663Z,28.13
2018-12-07T06:22:38.744Z,29.00
2018-12-07T06:25:08.082Z,30.37
2018-12-07T06:27:37.143Z,29.97
2018-12-07T06:30:07.051Z,30.80
2018-12-07T06:32:36.524Z,29.33
2018-12-07T06:35:05.855Z,29.20
2018-12-07T06:37:36.612Z,30.30
2018-12-07T06:40:06.190Z,30.53
2018-12-07T06:42:35.136Z,29.00
2018-12-07T06:45:04.408Z,29.60
2018-12-07T06:47:33.613Z,28.50
2018-12-07T06:50:02.800Z,26.83
2018-12-07T06:52:32.193Z,28.03
2018-12-07T06:55:01.496Z,28.13
2018-12-07T06:57:30.802Z,27.27
2018-12-07T06:59:59.652Z,27.07
2018-12-07T07:02:28.704Z,25.13
2018-12-07T07:04:58.180Z,26.40
2018-12-07T07:07:27.464Z,27.20
2018-12-07T07:09:57.395Z,30.60
2018-12-07T07:12:26.599Z,28.10
2018-12-07T07:14:55.798Z,29.00
2018-12-07T07:17:24.992Z,27.67
2018-12-07T07:19:54.094Z,25.70
2018-12-07T07:22:23.183Z,27.53
2018-12-07T07:24:52.247Z,25.27
2018-12-07T07:27:21.484Z,25.57
2018-12-07T07:29:50.609Z,22.20
2018-12-07T07:32:19.776Z,22.30
2018-12-07T07:34:48.608Z,21.53
2018-12-07T07:37:17.867Z,22.83
2018-12-07T07:39:46.785Z,21.40
2018-12-07T07:42:16.740Z,20.90
2018-12-07T07:44:46.344Z,21.37
2018-12-07T07:47:15.493Z,21.43
2018-12-07T07:49:45.183Z,23.00
2018-12-07T07:52:14.372Z,21.83
2018-12-07T07:54:43.981Z,19.93
2018-12-07T07:57:13.189Z,21.50
2018-12-07T07:59:42.459Z,20.00
2018-12-07T08:02:11.408Z,21.13
2018-12-07T08:04:40.891Z,23.80
2018-12-07T08:07:10.003Z,21.60
2018-12-07T08:09:39.175Z,23.30
2018-12-07T08:12:08.087Z,20.87
2018-12-07T08:14:36.956Z,19.67
2018-12-07T08:17:06.210Z,19.97
2018-12-07T08:19:35.420Z,20.33
2018-12-07T08:22:04.248Z,20.70
2018-12-07T08:24:33.899Z,21.83
2018-12-07T08:27:03.051Z,25.67
2018-12-07T08:29:32.151Z,22.97
2018-12-07T08:32:01.359Z,22.77
2018-12-07T08:34:30.548Z,20.30
2018-12-07T08:36:59.758Z,22.17
2018-12-07T08:39:28.950Z,23.57
2018-12-07T08:41:57.799Z,23.37
2018-12-07T08:44:27.116Z,20.90
2018-12-07T08:46:56.361Z,19.23
2018-12-07T08:49:30.387Z,21.30
2018-12-07T08:51:59.551Z,21.27
2018-12-07T08:54:28.740Z,21.47
2018-12-07T08:56:57.651Z,20.23
2018-12-07T08:59:26.864Z,22.70
2018-12-07T09:01:55.735Z,20.70
2018-12-07T09:04:24.825Z,22.23
2018-12-07T09:06:54.027Z,18.80
2018-12-07T09:09:22.923Z,21.03
2018-12-07T09:11:52.027Z,22.07
2018-12-07T09:14:20.856Z,22.57
2018-12-07T09:16:49.969Z,18.23
2018-12-07T09:19:18.887Z,18.20
2018-12-07T09:21:48.105Z,17.87
2018-12-07T09:24:16.927Z,17.67
2018-12-07T09:26:46.356Z,18.70
2018-12-07T09:29:15.476Z,18.97
2018-12-07T09:31:44.467Z,17.20
2018-12-07T09:34:13.308Z,18.73
2018-12-07T09:36:42.561Z,15.27
2018-12-07T09:39:11.714Z,16.23
2018-12-07T09:41:40.852Z,15.20
2018-12-07T09:44:09.675Z,16.97
2018-12-07T09:46:38.608Z,16.47
2018-12-07T09:49:07.732Z,17.90
2018-12-07T09:51:36.795Z,16.17
2018-12-07T09:54:05.938Z,18.90
2018-12-07T09:56:35.425Z,16.80
2018-12-07T09:59:04.511Z,16.57
2018-12-07T10:01:33.317Z,16.47
2018-12-07T10:04:02.864Z,18.23
2018-12-07T10:06:32.146Z,19.50
2018-12-07T10:09:07.767Z,18.97
2018-12-07T10:11:36.743Z,20.50
2018-12-07T10:14:05.652Z,21.70
2018-12-07T10:16:34.619Z,22.77
2018-12-07T10:19:03.742Z,20.33
2018-12-07T10:21:32.593Z,24.10
2018-12-07T10:24:01.708Z,21.13
2018-12-07T10:26:30.922Z,22.63
2018-12-07T10:29:00.336Z,20.33
2018-12-07T10:31:29.828Z,21.10
2018-12-07T10:33:59.152Z,23.10
2018-12-07T10:36:34.982Z,24.23
2018-12-07T10:39:05.323Z,22.83
2018-12-07T10:41:34.533Z,20.43
2018-12-07T10:44:03.484Z,22.57
2018-12-07T10:46:32.627Z,25.83
2018-12-07T10:49:01.655Z,21.13
2018-12-07T10:51:30.634Z,25.83
2018-12-07T10:53:59.451Z,25.67
2018-12-07T10:56:28.570Z,25.63
2018-12-07T10:58:58.074Z,26.60
2018-12-07T11:01:32.076Z,23.77
2018-12-07T11:04:06.553Z,21.20
2018-12-07T11:06:40.539Z,21.27
2018-12-07T11:09:14.861Z,25.03
2018-12-07T11:11:52.032Z,22.43
2018-12-07T11:15:28.219Z,22.23
2018-12-07T11:18:02.535Z,23.97
2018-12-07T11:20:36.711Z,30.67
2018-12-07T11:23:11.131Z,20.93
2018-12-07T11:25:45.372Z,20.17
2018-12-07T11:28:19.476Z,21.80
2018-12-07T11:30:53.513Z,20.17
2018-12-07T11:33:44.179Z,21.33
2018-12-07T11:36:13.913Z,19.13
2018-12-07T11:38:43.121Z,20.47
2018-12-07T11:41:11.986Z,22.77
2018-12-07T11:43:40.915Z,22.63
2018-12-07T11:46:10.495Z,22.10
2018-12-07T11:48:39.796Z,21.47
2018-12-07T11:51:08.987Z,19.83
2018-12-07T11:53:37.878Z,20.50
2018-12-07T11:56:07.088Z,21.03
2018-12-07T11:58:36.290Z,20.97
2018-12-07T12:01:05.243Z,20.87
2018-12-07T12:03:35.106Z,21.57
2018-12-07T12:06:05.046Z,21.77
2018-12-07T12:08:33.861Z,20.20
2018-12-07T12:11:03.410Z,20.20
2018-12-07T12:13:33.029Z,22.10
2018-12-07T12:16:03.980Z,22.13
2018-12-07T12:18:33.219Z,22.13
2018-12-07T12:21:02.283Z,20.20
2018-12-07T12:23:31.088Z,19.43
2018-12-07T12:26:00.170Z,21.67
2018-12-07T12:28:29.141Z,20.73
2018-12-07T12:30:58.466Z,21.33
2018-12-07T12:33:27.718Z,21.80
2018-12-07T12:35:56.917Z,21.43
2018-12-07T12:38:26.010Z,20.97
2018-12-07T12:40:54.845Z,20.17
2018-12-07T12:43:24.197Z,20.97
2018-12-07T12:45:53.708Z,19.93
2018-12-07T12:48:22.804Z,18.57
2018-12-07T12:50:51.811Z,20.60
2018-12-07T12:53:21.012Z,20.63
2018-12-07T12:55:50.094Z,20.80
2018-12-07T12:58:19.287Z,19.97
2018-12-07T13:00:48.400Z,21.23
2018-12-07T13:03:17.481Z,20.47
2018-12-07T13:05:46.704Z,21.07
2018-12-07T13:08:15.512Z,20.70
2018-12-07T13:10:44.344Z,17.27
2018-12-07T13:13:13.559Z,18.20
2018-12-07T13:15:42.655Z,16.83
2018-12-07T13:18:11.998Z,19.93
2018-12-07T13:20:40.887Z,18.60
2018-12-07T13:23:09.879Z,18.90
2018-12-07T13:25:39.450Z,18.43
2018-12-07T13:28:08.255Z,18.87
2018-12-07T13:30:37.848Z,23.33
2018-12-07T13:33:07.858Z,18.93
2018-12-07T13:35:37.755Z,17.73
2018-12-07T13:38:07.280Z,18.53
2018-12-07T13:40:36.327Z,19.93
2018-12-07T13:43:05.595Z,19.70
2018-12-07T13:45:41.156Z,19.90
2018-12-07T13:48:10.271Z,20.03
2018-12-07T13:50:42.144Z,18.77
2018-12-07T13:53:11.363Z,20.00
2018-12-07T13:55:40.977Z,20.03
2018-12-07T13:58:10.557Z,21.47
2018-12-07T14:00:40.005Z,21.33
2018-12-07T14:03:08.932Z,18.90
2018-12-07T14:05:38.073Z,18.47
2018-12-07T14:08:07.427Z,18.40
2018-12-07T14:10:36.636Z,19.47
2018-12-07T14:13:05.800Z,19.40
2018-12-07T14:15:34.955Z,20.33
2018-12-07T14:18:04.166Z,19.30
2018-12-07T14:20:33.503Z,19.73
2018-12-07T14:23:02.384Z,19.70
2018-12-07T14:25:31.764Z,21.83
2018-12-07T14:28:01.127Z,20.80
2018-12-07T14:30:30.330Z,19.67
2018-12-07T14:33:00.915Z,21.43
2018-12-07T14:35:31.501Z,19.97
2018-12-07T14:38:01.203Z,20.70
2018-12-07T14:40:31.419Z,21.17
2018-12-07T14:43:00.614Z,20.20
2018-12-07T14:45:29.670Z,21.67
2018-12-07T14:47:59.041Z,21.07
2018-12-07T14:50:28.289Z,22.17
2018-12-07T14:52:57.624Z,23.20
2018-12-07T14:55:26.879Z,21.93
2018-12-07T14:57:56.303Z,21.07
2018-12-07T15:00:25.629Z,19.07
2018-12-07T15:02:54.890Z,19.67
2018-12-07T15:05:24.179Z,19.23
2018-12-07T15:07:53.511Z,17.23
2018-12-07T15:10:22.736Z,22.50
2018-12-07T15:12:52.127Z,21.77
2018-12-07T15:15:21.479Z,23.70
2018-12-07T15:17:50.711Z,26.27
2018-12-07T15:20:20.094Z,23.20
2018-12-07T15:22:49.182Z,21.80
2018-12-07T15:25:18.374Z,23.10
2018-12-07T15:27:48.003Z,21.67
2018-12-07T15:30:17.557Z,24.27
2018-12-07T15:32:46.504Z,22.50
2018-12-07T15:35:15.430Z,23.30
2018-12-07T15:37:45.014Z,21.13
2018-12-07T15:40:15.293Z,20.37
2018-12-07T15:42:45.090Z,22.27
2018-12-07T15:45:15.283Z,21.33
2018-12-07T15:47:44.878Z,22.57
2018-12-07T15:50:14.620Z,22.33
2018-12-07T15:52:44.071Z,21.83
2018-12-07T15:55:13.207Z,23.37
2018-12-07T15:57:42.347Z,23.23
2018-12-07T16:00:12.129Z,23.33
2018-12-07T16:02:41.456Z,24.60
2018-12-07T16:05:10.727Z,21.77
2018-12-07T16:07:40.069Z,23.47
2018-12-07T16:10:09.631Z,23.10
2018-12-07T16:12:39.174Z,23.77
2018-12-07T16:15:08.921Z,26.33
2018-12-07T16:17:37.801Z,29.93
2018-12-07T16:20:11.256Z,26.57
2018-12-07T16:22:40.335Z,31.13
2018-12-07T16:25:09.695Z,30.60
2018-12-07T16:27:39.147Z,31.83
2018-12-07T16:30:10.630Z,30.80
2018-12-07T16:32:39.729Z,30.57
2018-12-07T16:35:09.109Z,31.07
2018-12-07T16:37:38.646Z,30.10
2018-12-07T16:40:09.406Z,31.87
2018-12-07T16:42:38.605Z,31.07
2018-12-07T16:45:08.035Z,33.93
2018-12-07T16:47:38.249Z,34.37
2018-12-07T16:50:08.472Z,30.40
2018-12-07T16:52:37.667Z,27.90
2018-12-07T16:55:07.103Z,32.03
2018-12-07T16:57:36.024Z,37.53
2018-12-07T17:00:05.851Z,36.57
2018-12-07T17:02:35.637Z,39.80
2018-12-07T17:05:05.879Z,35.50
2018-12-07T17:07:34.876Z,37.30
2018-12-07T17:10:04.246Z,38.80
2018-12-07T17:12:33.676Z,37.50
2018-12-07T17:15:03.381Z,38.27
2018-12-07T17:17:32.700Z,32.47
2018-12-07T17:20:01.812Z,32.50
2018-12-07T17:22:31.325Z,34.37
2018-12-07T17:25:00.563Z,33.83
2018-12-07T17:27:29.836Z,34.27
2018-12-07T17:29:59.093Z,38.50
2018-12-07T17:32:28.970Z,39.53
2018-12-07T17:34:58.035Z,38.77
2018-12-07T17:37:27.199Z,42.30
2018-12-07T17:39:56.115Z,76.43
2018-12-07T17:42:29.515Z,75.23
2018-12-07T17:44:56.482Z,74.80
2018-12-07T17:47:25.960Z,61.70
2018-12-07T17:49:55.309Z,62.73
2018-12-07T17:52:25.265Z,59.07
2018-12-07T17:54:54.799Z,55.27
2018-12-07T17:57:25.432Z,57.37
2018-12-07T17:59:54.726Z,62.40
2018-12-07T18:02:24.121Z,66.53
2018-12-07T18:04:53.757Z,76.13
2018-12-07T18:07:23.069Z,72.50
2018-12-07T18:09:52.276Z,71.07
2018-12-07T18:12:21.492Z,80.63
2018-12-07T18:14:50.802Z,72.17
2018-12-07T18:17:19.803Z,72.43
2018-12-07T18:19:48.874Z,75.60
2018-12-07T18:22:18.147Z,72.17
2018-12-07T18:24:47.384Z,75.70
2018-12-07T18:27:16.659Z,69.43
2018-12-07T18:29:45.650Z,65.43
2018-12-07T18:32:15.065Z,66.80
2018-12-07T18:34:44.162Z,91.03
2018-12-07T18:37:13.409Z,73.23
2018-12-07T18:39:42.584Z,67.03
2018-12-07T18:42:11.913Z,71.97
2018-12-07T18:44:41.012Z,67.40
2018-12-07T18:47:10.374Z,62.77
2018-12-07T18:49:39.707Z,63.93
2018-12-07T18:52:09.065Z,61.73
2018-12-07T18:54:39.111Z,66.97
2018-12-07T18:57:08.479Z,63.43
2018-12-07T18:59:37.937Z,61.63
2018-12-07T19:02:07.266Z,63.17
2018-12-07T19:04:36.459Z,69.83
2018-12-07T19:07:05.736Z,70.93
2018-12-07T19:09:34.895Z,67.40
2018-12-07T19:12:04.180Z,76.77
2018-12-07T19:14:33.519Z,69.40
2018-12-07T19:17:02.431Z,66.80
2018-12-07T19:19:31.433Z,66.40
2018-12-07T19:22:00.568Z,56.37
2018-12-07T19:24:29.722Z,55.87
2018-12-07T19:26:58.825Z,51.73
2018-12-07T19:29:28.737Z,47.13
2018-12-07T19:31:57.782Z,48.13
2018-12-07T19:34:26.949Z,51.63
2018-12-07T19:36:56.294Z,48.20
2018-12-07T19:39:25.356Z,48.03
2018-12-07T19:41:54.206Z,50.83
2018-12-07T19:44:23.552Z,55.93
2018-12-07T19:46:53.107Z,58.13
2018-12-07T19:49:22.656Z,57.23
2018-12-07T19:51:51.887Z,61.00
2018-12-07T19:54:21.285Z,54.37
2018-12-07T19:56:50.396Z,63.23
2018-12-07T19:59:19.589Z,82.73
2018-12-07T20:01:48.919Z,81.47
2018-12-07T20:04:18.980Z,70.00
2018-12-07T20:06:48.242Z,62.60
2018-12-07T20:09:17.754Z,63.13
2018-12-07T20:11:46.896Z,61.93
2018-12-07T20:14:16.644Z,60.27
2018-12-07T20:16:45.921Z,62.87
2018-12-07T20:19:15.786Z,59.97
2018-12-07T20:21:46.314Z,69.87
2018-12-07T20:24:16.072Z,59.73
2018-12-07T20:26:45.666Z,58.57
2018-12-07T20:29:15.198Z,61.30
2018-12-07T20:31:44.450Z,67.70
2018-12-07T20:34:13.707Z,61.93
2018-12-07T20:36:42.914Z,57.80
2018-12-07T20:39:11.956Z,59.83
2018-12-07T20:41:41.128Z,56.13
2018-12-07T20:44:10.106Z,65.93
2018-12-07T20:46:39.260Z,60.93
2018-12-07T20:49:08.231Z,56.07
2018-12-07T20:51:38.026Z,57.27
2018-12-07T20:54:07.457Z,50.40
2018-12-07T20:56:36.491Z,47.47
2018-12-07T20:59:05.814Z,48.27
2018-12-07T21:01:35.172Z,48.27
2018-12-07T21:04:40.431Z,51.77
2018-12-07T21:07:43.871Z,62.10
2018-12-07T21:11:27.050Z,82.07
2018-12-07T21:14:17.711Z,61.83
2018-12-07T21:17:01.568Z,61.90
2018-12-07T21:19:31.057Z,62.20
2018-12-07T21:22:00.338Z,63.60
2018-12-07T21:24:29.802Z,64.20
2018-12-07T21:26:58.983Z,56.60
2018-12-07T21:29:27.834Z,58.13
2018-12-07T21:31:59.081Z,52.23
2018-12-07T21:34:39.916Z,50.03
2018-12-07T21:37:08.967Z,51.97
2018-12-07T21:39:44.567Z,46.57
2018-12-07T21:42:14.078Z,48.13
2018-12-07T21:44:43.230Z,47.33
2018-12-07T21:47:12.448Z,52.57
2018-12-07T21:49:50.201Z,48.87
2018-12-07T21:52:26.173Z,49.23
2018-12-07T21:54:55.591Z,52.53
2018-12-07T21:57:24.903Z,56.50
2018-12-07T21:59:54.400Z,55.43
2018-12-07T22:02:23.858Z,54.10
2018-12-07T22:04:53.145Z,61.27
2018-12-07T22:07:22.626Z,78.50
2018-12-07T22:09:51.746Z,65.93
2018-12-07T22:12:20.831Z,64.67
2018-12-07T22:14:49.717Z,62.67
2018-12-07T22:17:19.324Z,58.13
2018-12-07T22:19:48.718Z,57.00
2018-12-07T22:22:18.154Z,58.17
2018-12-07T22:24:47.975Z,58.80
2018-12-07T22:27:17.230Z,56.27
2018-12-07T22:29:46.308Z,60.67
2018-12-07T22:32:15.319Z,58.37
2018-12-07T22:34:45.123Z,59.27
2018-12-07T22:37:14.301Z,56.47
2018-12-07T22:39:43.576Z,57.03
2018-12-07T22:42:13.372Z,53.30
2018-12-07T22:44:43.010Z,49.90
2018-12-07T22:47:12.563Z,47.37
2018-12-07T22:49:42.632Z,47.70
2018-12-07T22:52:11.756Z,50.67
2018-12-07T22:54:40.947Z,49.43
2018-12-07T22:57:09.974Z,48.37
2018-12-07T22:59:39.344Z,47.17
2018-12-07T23:02:08.280Z,43.67
2018-12-07T23:04:37.139Z,42.97
2018-12-07T23:07:06.340Z,44.07
2018-12-07T23:09:35.395Z,41.47
2018-12-07T23:12:04.515Z,42.63
2018-12-07T23:14:33.406Z,43.27
2018-12-07T23:17:02.681Z,44.03
2018-12-07T23:19:31.808Z,47.00
2018-12-07T23:22:00.788Z,44.57
2018-12-07T23:24:30.163Z,43.00
2018-12-07T23:26:59.057Z,42.60
2018-12-07T23:29:28.158Z,42.67
2018-12-07T23:31:56.968Z,45.23
2018-12-07T23:34:26.131Z,42.13
2018-12-07T23:36:55.319Z,43.80
2018-12-07T23:39:24.228Z,41.70
2018-12-07T23:41:54.020Z,42.47
2018-12-07T23:44:23.132Z,42.60
2018-12-07T23:46:52.513Z,40.47
2018-12-07T23:49:21.764Z,40.57
2018-12-07T23:51:52.695Z,42.67
2018-12-07T23:54:22.560Z,38.63
2018-12-07T23:56:51.357Z,39.47
2018-12-07T23:59:20.297Z,39.03
